sensor_id;sensor_type;location;lat;lon;timestamp;P1;durP1;ratioP1;P2;durP2;ratioP2
32186;SDS011;18686;53.084;8.872;2023-05-10T00:01:38;1.98;;;1.55;;
32186;SDS011;18686;53.084;8.872;2023-05-10T00:04:06;4.85;;;2.05;;
32186;SDS011;18686;53.084;8.872;2023-05-10T00:06:34;4.38;;;1.80;;
32186;SDS011;18686;53.084;8.872;2023-05-10T00:09:04;6.78;;;2.00;;
32186;SDS011;18686;53.084;8.872;2023-05-10T00:11:32;4.40;;;1.80;;
32186;SDS011;18686;53.084;8.872;2023-05-10T00:14:00;3.30;;;1.77;;
32186;SDS011;18686;53.084;8.872;2023-05-10T00:16:28;10.13;;;2.25;;
32186;SDS011;18686;53.084;8.872;2023-05-10T00:18:57;2.65;;;1.95;;
32186;SDS011;18686;53.084;8.872;2023-05-10T00:21:25;5.18;;;1.95;;
32186;SDS011;18686;53.084;8.872;2023-05-10T00:23:54;4.15;;;1.67;;
32186;SDS011;18686;53.084;8.872;2023-05-10T00:26:24;5.53;;;1.95;;
32186;SDS011;18686;53.084;8.872;2023-05-10T00:28:54;3.80;;;1.90;;
32186;SDS011;18686;53.084;8.872;2023-05-10T00:31:23;5.07;;;1.95;;
32186;SDS011;18686;53.084;8.872;2023-05-10T00:33:51;3.58;;;1.90;;
32186;SDS011;18686;53.084;8.872;2023-05-10T00:36:19;6.03;;;2.03;;
32186;SDS011;18686;53.084;8.872;2023-05-10T00:38:47;2.80;;;1.85;;
32186;SDS011;18686;53.084;8.872;2023-05-10T00:41:16;3.03;;;1.90;;
32186;SDS011;18686;53.084;8.872;2023-05-10T00:43:47;7.20;;;2.10;;
32186;SDS011;18686;53.084;8.872;2023-05-10T00:46:15;4.25;;;1.85;;
32186;SDS011;18686;53.084;8.872;2023-05-10T00:48:44;2.33;;;1.70;;
32186;SDS011;18686;53.084;8.872;2023-05-10T00:51:13;8.73;;;2.10;;
32186;SDS011;18686;53.084;8.872;2023-05-10T00:53:41;4.35;;;1.90;;
32186;SDS011;18686;53.084;8.872;2023-05-10T00:56:10;5.15;;;2.38;;
32186;SDS011;18686;53.084;8.872;2023-05-10T00:58:38;6.60;;;2.20;;
32186;SDS011;18686;53.084;8.872;2023-05-10T01:01:08;4.65;;;2.45;;
32186;SDS011;18686;53.084;8.872;2023-05-10T01:03:38;9.63;;;2.25;;
32186;SDS011;18686;53.084;8.872;2023-05-10T01:06:07;3.90;;;2.20;;
32186;SDS011;18686;53.084;8.872;2023-05-10T01:08:37;9.88;;;2.40;;
32186;SDS011;18686;53.084;8.872;2023-05-10T01:11:06;9.73;;;3.60;;
32186;SDS011;18686;53.084;8.872;2023-05-10T01:13:34;3.42;;;2.10;;
32186;SDS011;18686;53.084;8.872;2023-05-10T01:16:06;6.65;;;2.15;;
32186;SDS011;18686;53.084;8.872;2023-05-10T01:18:36;4.78;;;2.20;;
32186;SDS011;18686;53.084;8.872;2023-05-10T01:21:19;4.10;;;2.25;;
32186;SDS011;18686;53.084;8.872;2023-05-10T01:27:01;6.97;;;2.10;;
32186;SDS011;18686;53.084;8.872;2023-05-10T01:33:01;5.93;;;2.63;;
32186;SDS011;18686;53.084;8.872;2023-05-10T01:35:40;5.85;;;2.30;;
32186;SDS011;18686;53.084;8.872;2023-05-10T01:38:17;4.45;;;2.20;;
32186;SDS011;18686;53.084;8.872;2023-05-10T01:40:52;4.40;;;2.05;;
32186;SDS011;18686;53.084;8.872;2023-05-10T01:43:30;13.50;;;2.45;;
32186;SDS011;18686;53.084;8.872;2023-05-10T01:46:05;4.28;;;2.00;;
32186;SDS011;18686;53.084;8.872;2023-05-10T01:48:40;3.13;;;2.25;;
32186;SDS011;18686;53.084;8.872;2023-05-10T01:51:15;7.57;;;2.15;;
32186;SDS011;18686;53.084;8.872;2023-05-10T01:53:48;5.90;;;2.05;;
32186;SDS011;18686;53.084;8.872;2023-05-10T01:56:19;3.13;;;1.80;;
32186;SDS011;18686;53.084;8.872;2023-05-10T01:58:51;4.25;;;2.10;;
32186;SDS011;18686;53.084;8.872;2023-05-10T02:01:20;2.85;;;1.90;;
32186;SDS011;18686;53.084;8.872;2023-05-10T02:03:51;4.25;;;1.80;;
32186;SDS011;18686;53.084;8.872;2023-05-10T02:06:20;5.20;;;2.42;;
32186;SDS011;18686;53.084;8.872;2023-05-10T02:08:51;8.10;;;2.67;;
32186;SDS011;18686;53.084;8.872;2023-05-10T02:11:21;4.07;;;2.10;;
32186;SDS011;18686;53.084;8.872;2023-05-10T02:13:51;8.20;;;2.83;;
32186;SDS011;18686;53.084;8.872;2023-05-10T02:16:26;5.57;;;2.72;;
32186;SDS011;18686;53.084;8.872;2023-05-10T02:19:00;7.30;;;2.70;;
32186;SDS011;18686;53.084;8.872;2023-05-10T02:21:29;5.05;;;2.28;;
32186;SDS011;18686;53.084;8.872;2023-05-10T02:23:59;4.35;;;2.67;;
32186;SDS011;18686;53.084;8.872;2023-05-10T02:26:31;6.30;;;2.80;;
32186;SDS011;18686;53.084;8.872;2023-05-10T02:29:01;6.45;;;2.53;;
32186;SDS011;18686;53.084;8.872;2023-05-10T02:31:31;3.67;;;2.53;;
32186;SDS011;18686;53.084;8.872;2023-05-10T02:34:01;5.00;;;2.58;;
32186;SDS011;18686;53.084;8.872;2023-05-10T02:36:31;3.17;;;2.30;;
32186;SDS011;18686;53.084;8.872;2023-05-10T02:39:00;4.85;;;2.40;;
32186;SDS011;18686;53.084;8.872;2023-05-10T02:41:30;5.18;;;2.67;;
32186;SDS011;18686;53.084;8.872;2023-05-10T02:43:59;5.93;;;2.70;;
32186;SDS011;18686;53.084;8.872;2023-05-10T02:46:30;5.00;;;2.63;;
32186;SDS011;18686;53.084;8.872;2023-05-10T02:48:58;3.90;;;2.50;;
32186;SDS011;18686;53.084;8.872;2023-05-10T02:51:30;10.68;;;2.58;;
32186;SDS011;18686;53.084;8.872;2023-05-10T02:54:00;4.90;;;2.83;;
32186;SDS011;18686;53.084;8.872;2023-05-10T02:56:32;8.02;;;2.70;;
32186;SDS011;18686;53.084;8.872;2023-05-10T02:59:03;8.10;;;2.90;;
32186;SDS011;18686;53.084;8.872;2023-05-10T03:01:31;4.78;;;2.55;;
32186;SDS011;18686;53.084;8.872;2023-05-10T03:03:59;7.47;;;2.35;;
32186;SDS011;18686;53.084;8.872;2023-05-10T03:06:29;4.22;;;2.67;;
32186;SDS011;18686;53.084;8.872;2023-05-10T03:08:57;9.23;;;2.80;;
32186;SDS011;18686;53.084;8.872;2023-05-10T03:11:28;6.88;;;2.65;;
32186;SDS011;18686;53.084;8.872;2023-05-10T03:14:09;3.58;;;2.58;;
32186;SDS011;18686;53.084;8.872;2023-05-10T03:16:44;8.77;;;2.85;;
32186;SDS011;18686;53.084;8.872;2023-05-10T03:19:16;4.70;;;2.13;;
32186;SDS011;18686;53.084;8.872;2023-05-10T03:21:52;5.00;;;2.63;;
32186;SDS011;18686;53.084;8.872;2023-05-10T03:24:22;6.60;;;2.90;;
32186;SDS011;18686;53.084;8.872;2023-05-10T03:26:56;4.85;;;2.95;;
32186;SDS011;18686;53.084;8.872;2023-05-10T03:29:29;4.20;;;2.38;;
32186;SDS011;18686;53.084;8.872;2023-05-10T03:31:58;8.48;;;2.95;;
32186;SDS011;18686;53.084;8.872;2023-05-10T03:34:29;8.30;;;3.28;;
32186;SDS011;18686;53.084;8.872;2023-05-10T03:36:59;5.95;;;2.90;;
32186;SDS011;18686;53.084;8.872;2023-05-10T03:39:30;4.85;;;2.70;;
32186;SDS011;18686;53.084;8.872;2023-05-10T03:41:59;4.72;;;3.10;;
32186;SDS011;18686;53.084;8.872;2023-05-10T03:44:29;5.30;;;2.72;;
32186;SDS011;18686;53.084;8.872;2023-05-10T03:46:57;5.38;;;2.97;;
32186;SDS011;18686;53.084;8.872;2023-05-10T03:49:26;7.22;;;3.05;;
32186;SDS011;18686;53.084;8.872;2023-05-10T03:51:54;6.53;;;2.97;;
32186;SDS011;18686;53.084;8.872;2023-05-10T03:54:24;11.77;;;3.28;;
32186;SDS011;18686;53.084;8.872;2023-05-10T03:56:52;6.85;;;3.13;;
32186;SDS011;18686;53.084;8.872;2023-05-10T03:59:21;5.03;;;2.90;;
32186;SDS011;18686;53.084;8.872;2023-05-10T04:01:50;3.35;;;2.45;;
32186;SDS011;18686;53.084;8.872;2023-05-10T04:04:18;4.47;;;2.80;;
32186;SDS011;18686;53.084;8.872;2023-05-10T04:06:48;6.43;;;3.13;;
32186;SDS011;18686;53.084;8.872;2023-05-10T04:09:16;5.97;;;2.83;;
32186;SDS011;18686;53.084;8.872;2023-05-10T04:11:46;4.72;;;3.33;;
32186;SDS011;18686;53.084;8.872;2023-05-10T04:14:14;4.20;;;2.95;;
32186;SDS011;18686;53.084;8.872;2023-05-10T04:16:42;4.45;;;2.90;;
32186;SDS011;18686;53.084;8.872;2023-05-10T04:19:11;9.75;;;3.75;;
32186;SDS011;18686;53.084;8.872;2023-05-10T04:21:39;4.50;;;3.55;;
32186;SDS011;18686;53.084;8.872;2023-05-10T04:24:07;4.40;;;3.20;;
32186;SDS011;18686;53.084;8.872;2023-05-10T04:26:35;6.82;;;3.25;;
32186;SDS011;18686;53.084;8.872;2023-05-10T04:29:05;5.93;;;3.10;;
32186;SDS011;18686;53.084;8.872;2023-05-10T04:31:33;6.88;;;3.78;;
32186;SDS011;18686;53.084;8.872;2023-05-10T04:34:02;13.30;;;3.95;;
32186;SDS011;18686;53.084;8.872;2023-05-10T04:36:30;4.63;;;3.13;;
32186;SDS011;18686;53.084;8.872;2023-05-10T04:39:01;5.15;;;3.20;;
32186;SDS011;18686;53.084;8.872;2023-05-10T04:41:30;20.25;;;13.55;;
32186;SDS011;18686;53.084;8.872;2023-05-10T04:43:58;8.88;;;4.40;;
32186;SDS011;18686;53.084;8.872;2023-05-10T04:46:27;8.57;;;4.13;;
32186;SDS011;18686;53.084;8.872;2023-05-10T04:48:56;5.93;;;4.32;;
32186;SDS011;18686;53.084;8.872;2023-05-10T04:51:24;4.60;;;4.10;;
32186;SDS011;18686;53.084;8.872;2023-05-10T04:53:52;6.97;;;3.72;;
32186;SDS011;18686;53.084;8.872;2023-05-10T04:56:31;10.77;;;4.65;;
32186;SDS011;18686;53.084;8.872;2023-05-10T04:59:00;8.98;;;5.13;;
32186;SDS011;18686;53.084;8.872;2023-05-10T05:01:30;9.05;;;4.57;;
32186;SDS011;18686;53.084;8.872;2023-05-10T05:03:58;7.13;;;4.40;;
32186;SDS011;18686;53.084;8.872;2023-05-10T05:06:27;6.85;;;4.53;;
32186;SDS011;18686;53.084;8.872;2023-05-10T05:08:55;6.70;;;4.60;;
32186;SDS011;18686;53.084;8.872;2023-05-10T05:11:23;5.55;;;4.20;;
32186;SDS011;18686;53.084;8.872;2023-05-10T05:13:52;8.52;;;4.72;;
32186;SDS011;18686;53.084;8.872;2023-05-10T05:16:20;6.35;;;4.93;;
32186;SDS011;18686;53.084;8.872;2023-05-10T05:18:50;8.77;;;5.10;;
32186;SDS011;18686;53.084;8.872;2023-05-10T05:21:19;8.05;;;5.13;;
32186;SDS011;18686;53.084;8.872;2023-05-10T05:23:48;10.38;;;5.30;;
32186;SDS011;18686;53.084;8.872;2023-05-10T05:26:16;8.63;;;4.65;;
32186;SDS011;18686;53.084;8.872;2023-05-10T05:28:44;9.75;;;4.95;;
32186;SDS011;18686;53.084;8.872;2023-05-10T05:31:15;10.73;;;5.18;;
32186;SDS011;18686;53.084;8.872;2023-05-10T05:33:44;7.80;;;5.43;;
32186;SDS011;18686;53.084;8.872;2023-05-10T05:36:13;7.07;;;4.88;;
32186;SDS011;18686;53.084;8.872;2023-05-10T05:38:42;7.28;;;4.95;;
32186;SDS011;18686;53.084;8.872;2023-05-10T05:41:10;7.82;;;5.35;;
32186;SDS011;18686;53.084;8.872;2023-05-10T05:43:38;7.22;;;5.03;;
32186;SDS011;18686;53.084;8.872;2023-05-10T05:46:07;6.63;;;4.63;;
32186;SDS011;18686;53.084;8.872;2023-05-10T05:48:35;6.72;;;5.10;;
32186;SDS011;18686;53.084;8.872;2023-05-10T05:51:03;7.75;;;5.20;;
32186;SDS011;18686;53.084;8.872;2023-05-10T05:53:34;8.77;;;5.72;;
32186;SDS011;18686;53.084;8.872;2023-05-10T05:56:02;9.88;;;5.32;;
32186;SDS011;18686;53.084;8.872;2023-05-10T05:58:31;8.43;;;5.90;;
32186;SDS011;18686;53.084;8.872;2023-05-10T06:00:59;7.85;;;5.78;;
32186;SDS011;18686;53.084;8.872;2023-05-10T06:03:28;6.75;;;5.93;;
32186;SDS011;18686;53.084;8.872;2023-05-10T06:05:56;10.73;;;6.55;;
32186;SDS011;18686;53.084;8.872;2023-05-10T06:08:24;12.77;;;5.88;;
32186;SDS011;18686;53.084;8.872;2023-05-10T06:10:54;10.27;;;7.43;;
32186;SDS011;18686;53.084;8.872;2023-05-10T06:13:22;13.43;;;7.80;;
32186;SDS011;18686;53.084;8.872;2023-05-10T06:15:50;9.57;;;7.13;;
32186;SDS011;18686;53.084;8.872;2023-05-10T06:18:18;12.73;;;7.18;;
32186;SDS011;18686;53.084;8.872;2023-05-10T06:20:47;14.30;;;8.52;;
32186;SDS011;18686;53.084;8.872;2023-05-10T06:23:16;9.90;;;7.82;;
32186;SDS011;18686;53.084;8.872;2023-05-10T06:25:44;12.50;;;8.43;;
32186;SDS011;18686;53.084;8.872;2023-05-10T06:28:14;10.40;;;8.23;;
32186;SDS011;18686;53.084;8.872;2023-05-10T06:30:42;10.73;;;8.45;;
32186;SDS011;18686;53.084;8.872;2023-05-10T06:33:10;13.70;;;10.18;;
32186;SDS011;18686;53.084;8.872;2023-05-10T06:35:39;13.35;;;10.52;;
32186;SDS011;18686;53.084;8.872;2023-05-10T06:38:07;12.65;;;10.40;;
32186;SDS011;18686;53.084;8.872;2023-05-10T06:40:35;17.05;;;11.23;;
32186;SDS011;18686;53.084;8.872;2023-05-10T06:43:05;12.13;;;9.98;;
32186;SDS011;18686;53.084;8.872;2023-05-10T06:45:35;18.35;;;10.88;;
32186;SDS011;18686;53.084;8.872;2023-05-10T06:48:04;16.13;;;12.60;;
32186;SDS011;18686;53.084;8.872;2023-05-10T06:50:32;21.83;;;14.15;;
32186;SDS011;18686;53.084;8.872;2023-05-10T06:53:00;19.75;;;11.90;;
32186;SDS011;18686;53.084;8.872;2023-05-10T06:55:29;14.10;;;12.15;;
32186;SDS011;18686;53.084;8.872;2023-05-10T06:57:57;13.93;;;11.05;;
32186;SDS011;18686;53.084;8.872;2023-05-10T07:00:25;19.35;;;13.05;;
32186;SDS011;18686;53.084;8.872;2023-05-10T07:02:55;20.45;;;14.68;;
32186;SDS011;18686;53.084;8.872;2023-05-10T07:05:23;22.80;;;15.60;;
32186;SDS011;18686;53.084;8.872;2023-05-10T07:07:54;18.10;;;12.75;;
32186;SDS011;18686;53.084;8.872;2023-05-10T07:10:25;19.88;;;15.02;;
32186;SDS011;18686;53.084;8.872;2023-05-10T07:12:53;20.77;;;15.82;;
32186;SDS011;18686;53.084;8.872;2023-05-10T07:15:21;16.60;;;13.93;;
32186;SDS011;18686;53.084;8.872;2023-05-10T07:17:49;20.85;;;14.50;;
32186;SDS011;18686;53.084;8.872;2023-05-10T07:20:20;13.95;;;12.32;;
32186;SDS011;18686;53.084;8.872;2023-05-10T07:22:48;17.77;;;14.38;;
32186;SDS011;18686;53.084;8.872;2023-05-10T07:25:16;16.25;;;14.00;;
32186;SDS011;18686;53.084;8.872;2023-05-10T07:27:44;20.05;;;17.17;;
32186;SDS011;18686;53.084;8.872;2023-05-10T07:30:14;20.20;;;16.30;;
32186;SDS011;18686;53.084;8.872;2023-05-10T07:32:42;17.95;;;16.15;;
32186;SDS011;18686;53.084;8.872;2023-05-10T07:35:11;24.67;;;17.52;;
32186;SDS011;18686;53.084;8.872;2023-05-10T07:37:41;18.77;;;16.83;;
32186;SDS011;18686;53.084;8.872;2023-05-10T07:40:09;17.77;;;15.05;;
32186;SDS011;18686;53.084;8.872;2023-05-10T07:42:37;17.55;;;15.55;;
32186;SDS011;18686;53.084;8.872;2023-05-10T07:45:06;19.02;;;16.80;;
32186;SDS011;18686;53.084;8.872;2023-05-10T07:47:36;17.52;;;14.88;;
32186;SDS011;18686;53.084;8.872;2023-05-10T07:50:04;16.67;;;15.05;;
32186;SDS011;18686;53.084;8.872;2023-05-10T07:52:33;19.27;;;17.00;;
32186;SDS011;18686;53.084;8.872;2023-05-10T07:55:03;23.75;;;18.67;;
32186;SDS011;18686;53.084;8.872;2023-05-10T07:57:33;20.10;;;17.02;;
32186;SDS011;18686;53.084;8.872;2023-05-10T08:00:02;19.50;;;17.27;;
32186;SDS011;18686;53.084;8.872;2023-05-10T08:02:38;17.60;;;15.70;;
32186;SDS011;18686;53.084;8.872;2023-05-10T08:05:07;21.70;;;17.58;;
32186;SDS011;18686;53.084;8.872;2023-05-10T08:07:35;19.73;;;17.40;;
32186;SDS011;18686;53.084;8.872;2023-05-10T08:10:06;22.23;;;17.25;;
32186;SDS011;18686;53.084;8.872;2023-05-10T08:12:35;15.60;;;13.95;;
32186;SDS011;18686;53.084;8.872;2023-05-10T08:15:04;16.40;;;13.55;;
32186;SDS011;18686;53.084;8.872;2023-05-10T08:17:33;13.60;;;12.20;;
32186;SDS011;18686;53.084;8.872;2023-05-10T08:20:01;16.98;;;13.32;;
32186;SDS011;18686;53.084;8.872;2023-05-10T08:22:29;13.35;;;11.85;;
32186;SDS011;18686;53.084;8.872;2023-05-10T08:24:58;14.50;;;12.40;;
32186;SDS011;18686;53.084;8.872;2023-05-10T08:27:27;17.15;;;11.93;;
32186;SDS011;18686;53.084;8.872;2023-05-10T08:29:55;15.13;;;11.10;;
32186;SDS011;18686;53.084;8.872;2023-05-10T08:32:23;15.05;;;10.57;;
32186;SDS011;18686;53.084;8.872;2023-05-10T08:34:52;10.75;;;8.88;;
32186;SDS011;18686;53.084;8.872;2023-05-10T08:37:20;9.65;;;8.27;;
32186;SDS011;18686;53.084;8.872;2023-05-10T08:39:48;9.55;;;8.38;;
32186;SDS011;18686;53.084;8.872;2023-05-10T08:42:16;8.98;;;7.47;;
32186;SDS011;18686;53.084;8.872;2023-05-10T08:44:51;7.03;;;6.07;;
32186;SDS011;18686;53.084;8.872;2023-05-10T08:47:21;8.75;;;7.15;;
32186;SDS011;18686;53.084;8.872;2023-05-10T08:49:49;8.07;;;6.30;;
32186;SDS011;18686;53.084;8.872;2023-05-10T08:52:18;8.05;;;6.80;;
32186;SDS011;18686;53.084;8.872;2023-05-10T08:54:56;7.00;;;6.30;;
32186;SDS011;18686;53.084;8.872;2023-05-10T08:57:24;7.78;;;6.97;;
32186;SDS011;18686;53.084;8.872;2023-05-10T08:59:53;8.77;;;7.97;;
32186;SDS011;18686;53.084;8.872;2023-05-10T09:02:21;8.40;;;7.70;;
32186;SDS011;18686;53.084;8.872;2023-05-10T09:04:51;6.82;;;6.22;;
32186;SDS011;18686;53.084;8.872;2023-05-10T09:07:20;8.25;;;7.55;;
32186;SDS011;18686;53.084;8.872;2023-05-10T09:09:48;6.70;;;5.85;;
32186;SDS011;18686;53.084;8.872;2023-05-10T09:12:18;6.38;;;4.65;;
32186;SDS011;18686;53.084;8.872;2023-05-10T09:14:46;4.40;;;3.85;;
32186;SDS011;18686;53.084;8.872;2023-05-10T09:17:15;3.50;;;3.20;;
32186;SDS011;18686;53.084;8.872;2023-05-10T09:19:44;6.20;;;2.88;;
32186;SDS011;18686;53.084;8.872;2023-05-10T09:22:13;3.22;;;2.70;;
32186;SDS011;18686;53.084;8.872;2023-05-10T09:24:42;2.30;;;2.05;;
32186;SDS011;18686;53.084;8.872;2023-05-10T09:27:11;2.40;;;2.20;;
32186;SDS011;18686;53.084;8.872;2023-05-10T09:29:41;2.45;;;1.98;;
32186;SDS011;18686;53.084;8.872;2023-05-10T09:32:10;2.67;;;1.70;;
32186;SDS011;18686;53.084;8.872;2023-05-10T09:34:39;1.67;;;1.48;;
32186;SDS011;18686;53.084;8.872;2023-05-10T09:37:08;3.03;;;1.92;;
32186;SDS011;18686;53.084;8.872;2023-05-10T09:39:37;2.95;;;2.38;;
32186;SDS011;18686;53.084;8.872;2023-05-10T09:42:06;2.80;;;2.60;;
32186;SDS011;18686;53.084;8.872;2023-05-10T09:44:35;3.50;;;2.65;;
32186;SDS011;18686;53.084;8.872;2023-05-10T09:47:05;3.65;;;3.35;;
32186;SDS011;18686;53.084;8.872;2023-05-10T09:49:34;5.28;;;3.70;;
32186;SDS011;18686;53.084;8.872;2023-05-10T09:52:02;5.38;;;3.50;;
32186;SDS011;18686;53.084;8.872;2023-05-10T09:54:31;4.07;;;3.65;;
32186;SDS011;18686;53.084;8.872;2023-05-10T09:57:00;3.60;;;3.30;;
32186;SDS011;18686;53.084;8.872;2023-05-10T09:59:29;3.65;;;3.35;;
32186;SDS011;18686;53.084;8.872;2023-05-10T10:02:01;4.43;;;3.30;;
32186;SDS011;18686;53.084;8.872;2023-05-10T10:04:31;3.80;;;3.50;;
32186;SDS011;18686;53.084;8.872;2023-05-10T10:07:00;3.95;;;3.30;;
32186;SDS011;18686;53.084;8.872;2023-05-10T10:09:30;4.15;;;3.75;;
32186;SDS011;18686;53.084;8.872;2023-05-10T10:11:58;9.63;;;2.70;;
32186;SDS011;18686;53.084;8.872;2023-05-10T10:14:27;2.97;;;2.55;;
32186;SDS011;18686;53.084;8.872;2023-05-10T10:16:56;6.75;;;2.80;;
32186;SDS011;18686;53.084;8.872;2023-05-10T10:19:35;18.02;;;2.72;;
32186;SDS011;18686;53.084;8.872;2023-05-10T10:22:04;3.20;;;2.20;;
32186;SDS011;18686;53.084;8.872;2023-05-10T10:24:32;5.25;;;2.22;;
32186;SDS011;18686;53.084;8.872;2023-05-10T10:27:03;2.45;;;1.90;;
32186;SDS011;18686;53.084;8.872;2023-05-10T10:29:39;4.75;;;1.90;;
32186;SDS011;18686;53.084;8.872;2023-05-10T10:32:19;1.63;;;1.52;;
32186;SDS011;18686;53.084;8.872;2023-05-10T10:34:55;2.58;;;1.70;;
32186;SDS011;18686;53.084;8.872;2023-05-10T10:37:23;8.45;;;1.60;;
32186;SDS011;18686;53.084;8.872;2023-05-10T10:42:58;2.05;;;1.25;;
32186;SDS011;18686;53.084;8.872;2023-05-10T10:45:47;3.88;;;1.50;;
32186;SDS011;18686;53.084;8.872;2023-05-10T10:48:36;2.33;;;1.50;;
32186;SDS011;18686;53.084;8.872;2023-05-10T10:51:05;1.40;;;1.30;;
32186;SDS011;18686;53.084;8.872;2023-05-10T10:53:36;0.85;;;0.80;;
32186;SDS011;18686;53.084;8.872;2023-05-10T10:56:07;3.17;;;1.20;;
32186;SDS011;18686;53.084;8.872;2023-05-10T10:58:36;3.92;;;1.20;;
32186;SDS011;18686;53.084;8.872;2023-05-10T11:01:08;3.50;;;1.17;;
32186;SDS011;18686;53.084;8.872;2023-05-10T11:03:39;1.90;;;1.02;;
32186;SDS011;18686;53.084;8.872;2023-05-10T11:06:09;3.42;;;1.30;;
32186;SDS011;18686;53.084;8.872;2023-05-10T11:08:41;7.55;;;1.70;;
32186;SDS011;18686;53.084;8.872;2023-05-10T11:11:14;2.00;;;1.10;;
32186;SDS011;18686;53.084;8.872;2023-05-10T11:13:43;1.30;;;0.80;;
32186;SDS011;18686;53.084;8.872;2023-05-10T11:16:17;1.17;;;0.70;;
32186;SDS011;18686;53.084;8.872;2023-05-10T11:18:54;1.30;;;0.80;;
32186;SDS011;18686;53.084;8.872;2023-05-10T11:21:27;5.25;;;0.70;;
32186;SDS011;18686;53.084;8.872;2023-05-10T11:23:56;1.25;;;0.70;;
32186;SDS011;18686;53.084;8.872;2023-05-10T11:26:25;1.17;;;0.90;;
32186;SDS011;18686;53.084;8.872;2023-05-10T11:28:58;1.05;;;0.90;;
32186;SDS011;18686;53.084;8.872;2023-05-10T11:31:27;2.33;;;1.42;;
32186;SDS011;18686;53.084;8.872;2023-05-10T11:33:56;4.07;;;1.25;;
32186;SDS011;18686;53.084;8.872;2023-05-10T11:36:27;1.08;;;0.70;;
32186;SDS011;18686;53.084;8.872;2023-05-10T11:38:57;1.00;;;0.90;;
32186;SDS011;18686;53.084;8.872;2023-05-10T11:41:27;1.38;;;0.93;;
32186;SDS011;18686;53.084;8.872;2023-05-10T11:43:57;0.60;;;0.57;;
32186;SDS011;18686;53.084;8.872;2023-05-10T11:46:26;1.17;;;0.52;;
32186;SDS011;18686;53.084;8.872;2023-05-10T11:48:57;1.38;;;0.60;;
32186;SDS011;18686;53.084;8.872;2023-05-10T11:51:32;1.08;;;0.63;;
32186;SDS011;18686;53.084;8.872;2023-05-10T11:54:04;1.05;;;0.52;;
32186;SDS011;18686;53.084;8.872;2023-05-10T11:56:34;1.67;;;0.80;;
32186;SDS011;18686;53.084;8.872;2023-05-10T11:59:03;0.73;;;0.50;;
32186;SDS011;18686;53.084;8.872;2023-05-10T12:01:32;0.77;;;0.60;;
32186;SDS011;18686;53.084;8.872;2023-05-10T12:04:00;0.98;;;0.63;;
32186;SDS011;18686;53.084;8.872;2023-05-10T12:06:31;0.98;;;0.90;;
32186;SDS011;18686;53.084;8.872;2023-05-10T12:09:05;1.70;;;1.60;;
32186;SDS011;18686;53.084;8.872;2023-05-10T12:11:36;0.70;;;0.50;;
32186;SDS011;18686;53.084;8.872;2023-05-10T12:14:09;1.27;;;1.17;;
32186;SDS011;18686;53.084;8.872;2023-05-10T12:16:37;1.08;;;0.50;;
32186;SDS011;18686;53.084;8.872;2023-05-10T12:19:06;1.85;;;1.67;;
32186;SDS011;18686;53.084;8.872;2023-05-10T12:21:36;3.92;;;2.03;;
32186;SDS011;18686;53.084;8.872;2023-05-10T12:24:05;1.40;;;1.25;;
32186;SDS011;18686;53.084;8.872;2023-05-10T12:26:33;1.70;;;0.70;;
32186;SDS011;18686;53.084;8.872;2023-05-10T12:29:12;0.55;;;0.30;;
32186;SDS011;18686;53.084;8.872;2023-05-10T12:31:51;0.57;;;0.50;;
32186;SDS011;18686;53.084;8.872;2023-05-10T12:34:24;0.77;;;0.50;;
32186;SDS011;18686;53.084;8.872;2023-05-10T12:36:54;1.83;;;0.60;;
32186;SDS011;18686;53.084;8.872;2023-05-10T12:39:23;1.35;;;0.30;;
32186;SDS011;18686;53.084;8.872;2023-05-10T12:41:51;1.77;;;0.20;;
32186;SDS011;18686;53.084;8.872;2023-05-10T12:44:20;0.80;;;0.22;;
32186;SDS011;18686;53.084;8.872;2023-05-10T12:46:48;0.38;;;0.30;;
32186;SDS011;18686;53.084;8.872;2023-05-10T12:49:16;0.25;;;0.22;;
32186;SDS011;18686;53.084;8.872;2023-05-10T12:51:46;0.20;;;0.20;;
32186;SDS011;18686;53.084;8.872;2023-05-10T12:54:15;0.40;;;0.30;;
32186;SDS011;18686;53.084;8.872;2023-05-10T12:56:43;0.40;;;0.20;;
32186;SDS011;18686;53.084;8.872;2023-05-10T12:59:12;2.05;;;0.40;;
32186;SDS011;18686;53.084;8.872;2023-05-10T13:01:40;0.38;;;0.38;;
32186;SDS011;18686;53.084;8.872;2023-05-10T13:04:08;1.13;;;0.40;;
32186;SDS011;18686;53.084;8.872;2023-05-10T13:06:37;1.77;;;1.50;;
32186;SDS011;18686;53.084;8.872;2023-05-10T13:09:05;1.58;;;1.00;;
32186;SDS011;18686;53.084;8.872;2023-05-10T13:11:34;0.57;;;0.57;;
32186;SDS011;18686;53.084;8.872;2023-05-10T13:14:03;0.93;;;0.60;;
32186;SDS011;18686;53.084;8.872;2023-05-10T13:16:31;0.70;;;0.70;;
32186;SDS011;18686;53.084;8.872;2023-05-10T13:18:59;1.50;;;0.80;;
32186;SDS011;18686;53.084;8.872;2023-05-10T13:21:28;0.68;;;0.65;;
32186;SDS011;18686;53.084;8.872;2023-05-10T13:23:56;1.42;;;0.98;;
32186;SDS011;18686;53.084;8.872;2023-05-10T13:26:25;1.80;;;1.50;;
32186;SDS011;18686;53.084;8.872;2023-05-10T13:28:54;1.98;;;1.60;;
32186;SDS011;18686;53.084;8.872;2023-05-10T13:31:23;2.92;;;2.60;;
32186;SDS011;18686;53.084;8.872;2023-05-10T13:33:51;2.60;;;2.30;;
32186;SDS011;18686;53.084;8.872;2023-05-10T13:36:19;2.22;;;1.58;;
32186;SDS011;18686;53.084;8.872;2023-05-10T13:38:47;3.60;;;3.03;;
32186;SDS011;18686;53.084;8.872;2023-05-10T13:41:16;2.25;;;1.58;;
32186;SDS011;18686;53.084;8.872;2023-05-10T13:43:45;3.03;;;1.40;;
32186;SDS011;18686;53.084;8.872;2023-05-10T13:46:16;1.55;;;1.40;;
32186;SDS011;18686;53.084;8.872;2023-05-10T13:48:45;2.80;;;1.85;;
32186;SDS011;18686;53.084;8.872;2023-05-10T13:51:13;2.47;;;1.60;;
32186;SDS011;18686;53.084;8.872;2023-05-10T13:53:41;2.60;;;1.40;;
32186;SDS011;18686;53.084;8.872;2023-05-10T13:56:10;2.58;;;1.60;;
32186;SDS011;18686;53.084;8.872;2023-05-10T13:58:38;1.10;;;1.05;;
32186;SDS011;18686;53.084;8.872;2023-05-10T14:01:06;2.38;;;2.17;;
32186;SDS011;18686;53.084;8.872;2023-05-10T14:03:36;3.38;;;2.95;;
32186;SDS011;18686;53.084;8.872;2023-05-10T14:06:04;2.58;;;1.70;;
32186;SDS011;18686;53.084;8.872;2023-05-10T14:08:33;1.70;;;1.27;;
32186;SDS011;18686;53.084;8.872;2023-05-10T14:11:02;0.80;;;0.80;;
32186;SDS011;18686;53.084;8.872;2023-05-10T14:13:31;0.63;;;0.63;;
32186;SDS011;18686;53.084;8.872;2023-05-10T14:15:59;1.30;;;1.20;;
32186;SDS011;18686;53.084;8.872;2023-05-10T14:18:28;3.80;;;1.10;;
32186;SDS011;18686;53.084;8.872;2023-05-10T14:20:58;3.25;;;2.95;;
32186;SDS011;18686;53.084;8.872;2023-05-10T14:23:26;2.22;;;2.03;;
32186;SDS011;18686;53.084;8.872;2023-05-10T14:25:55;1.95;;;1.75;;
32186;SDS011;18686;53.084;8.872;2023-05-10T14:28:23;1.90;;;1.17;;
32186;SDS011;18686;53.084;8.872;2023-05-10T14:30:52;1.63;;;1.15;;
32186;SDS011;18686;53.084;8.872;2023-05-10T14:33:20;2.13;;;1.13;;
32186;SDS011;18686;53.084;8.872;2023-05-10T14:35:48;1.13;;;1.02;;
32186;SDS011;18686;53.084;8.872;2023-05-10T14:38:18;1.30;;;1.20;;
32186;SDS011;18686;53.084;8.872;2023-05-10T14:40:46;1.13;;;0.98;;
32186;SDS011;18686;53.084;8.872;2023-05-10T14:43:14;2.15;;;0.80;;
32186;SDS011;18686;53.084;8.872;2023-05-10T14:45:43;2.53;;;1.38;;
32186;SDS011;18686;53.084;8.872;2023-05-10T14:48:11;2.22;;;1.20;;
32186;SDS011;18686;53.084;8.872;2023-05-10T14:50:42;1.35;;;1.20;;
32186;SDS011;18686;53.084;8.872;2023-05-10T14:53:10;1.00;;;0.93;;
32186;SDS011;18686;53.084;8.872;2023-05-10T14:55:40;2.05;;;1.02;;
32186;SDS011;18686;53.084;8.872;2023-05-10T14:58:08;2.10;;;0.98;;
32186;SDS011;18686;53.084;8.872;2023-05-10T15:00:37;1.70;;;1.10;;
32186;SDS011;18686;53.084;8.872;2023-05-10T15:03:05;2.58;;;1.30;;
32186;SDS011;18686;53.084;8.872;2023-05-10T15:05:34;2.95;;;1.05;;
32186;SDS011;18686;53.084;8.872;2023-05-10T15:08:03;3.90;;;2.10;;